Time;durP1;ratioP1;P1;durP2;ratioP2;P2;SDS_P1;SDS_P2;PMS_P1;PMS_P2;Temp;Humidity;BMP_temperature;BMP_pressure;BME280_temperature;BME280_humidity;BME280_pressure;Samples;Min_cycle;Max_cycle;Signal;HPM_P1;HPM_P2
2022/08/12 00:42:52;;;;;;;;;;;;;;;22.96;39.98;100055.50;4453431;32;34277;-81
2022/08/12 00:45:20;;;;;;;;;;;;;;;23.03;39.92;100053.13;4440666;32;32972;-80
2022/08/12 00:47:48;;;;;;;;;;;;;;;23.06;39.61;100049.28;4453433;32;33413;-80
2022/08/12 00:50:18;;;;;;;;;;;;;;;22.88;40.68;100049.06;4452806;32;33922;-80
2022/08/12 00:52:47;;;;;;;;;;;;;;;23.05;40.64;100047.59;4441166;32;34058;-80
2022/08/12 00:55:16;;;;;;;;;;;;;;;23.03;41.16;100049.56;4440189;32;34295;-81
2022/08/12 00:57:46;;;;;;;;;;;;;;;22.93;40.92;100050.41;4440675;32;32750;-81
2022/08/12 01:00:17;;;;;;;;;;;;;;;23.04;40.89;100051.28;4430073;32;34056;-81
2022/08/12 01:02:46;;;;;;;;;;;;;;;22.79;41.40;100049.91;4441063;32;33034;-81
2022/08/12 01:13:38;;;;;;;;;;;;;;;22.78;41.65;100056.28;4449451;32;33954;-80
2022/08/12 01:16:06;;;;;;;;;;;;;;;22.84;41.33;100055.75;4440278;32;32604;-81
2022/08/12 01:18:35;;;;;;;;;;;;;;;22.42;42.33;100061.31;4428309;32;33106;-80
2022/08/12 01:21:06;;;;;;;;;;;;;;;22.58;41.70;100050.03;4427745;32;33622;-80
2022/08/12 01:23:35;;;;;;;;;;;;;;;22.55;42.05;100055.66;4439212;32;33921;-80
2022/08/12 01:26:03;;;;;;;;;;;;;;;22.47;42.55;100059.06;4427917;32;33435;-80
2022/08/12 01:28:30;;;;;;;;;;;;;;;22.40;42.96;100052.50;4440615;32;32807;-80
2022/08/12 01:31:00;;;;;;;;;;;;;;;22.41;42.53;100059.62;4427538;32;33263;-81
2022/08/12 01:33:29;;;;;;;;;;;;;;;21.96;43.93;100059.94;4439794;32;34032;-81
2022/08/12 01:35:59;;;;;;;;;;;;;;;22.08;43.46;100058.03;4427088;32;33793;-80
2022/08/12 01:38:36;;;;;;;;;;;;;;;22.13;43.20;100067.44;4441708;32;33055;-80
2022/08/12 01:41:04;;;;;;;;;;;;;;;22.03;43.66;100061.13;4439738;32;33904;-80
2022/08/12 01:43:32;;;;;;;;;;;;;;;21.79;44.12;100050.66;4427428;32;33167;-80
2022/08/12 01:46:08;;;;;;;;;;;;;;;21.82;44.16;100053.06;4440286;32;33728;-80
2022/08/12 01:48:45;;;;;;;;;;;;;;;21.63;44.41;100048.44;4425884;32;32436;-80
2022/08/12 01:51:15;;;;;;;;;;;;;;;21.55;44.96;100044.69;4452704;32;34959;-80
2022/08/12 01:54:05;;;;;;;;;;;;;;;21.66;44.71;100042.81;4438119;32;34060;-80
2022/08/12 01:56:53;;;;;;;;;;;;;;;21.48;44.96;100033.63;4440081;32;34084;-80
2022/08/12 01:59:48;;;;;;;;;;;;;;;21.44;45.54;100037.56;4425720;32;32250;-81
2022/08/12 02:02:17;;;;;;;;;;;;;;;21.09;46.60;100036.00;4441326;32;34558;-81
2022/08/12 02:13:31;;;;;;;;;;;;;;;21.41;45.75;100037.81;4446985;32;32642;-81
2022/08/12 02:16:23;;;;;;;;;;;;;;;21.16;46.62;100034.47;4453979;32;34592;-80
2022/08/12 02:19:01;;;;;;;;;;;;;;;21.23;46.43;100029.47;4439445;32;32815;-80
2022/08/12 02:22:03;;;;;;;;;;;;;;;21.12;47.12;100027.66;4433304;32;32406;-80
2022/08/12 02:24:31;;;;;;;;;;;;;;;21.09;46.54;100022.56;4439304;32;34230;-80
2022/08/12 02:26:59;;;;;;;;;;;;;;;20.70;47.36;100024.06;4439478;32;34654;-80
2022/08/12 02:29:26;;;;;;;;;;;;;;;20.91;46.89;100022.25;4426948;32;33886;-81
2022/08/12 02:31:54;;;;;;;;;;;;;;;20.93;46.72;100024.81;4439840;32;32459;-80
2022/08/12 02:34:23;;;;;;;;;;;;;;;21.01;46.62;100021.50;4440436;32;33504;-81
2022/08/12 02:36:53;;;;;;;;;;;;;;;20.95;47.11;100017.50;4441668;32;33846;-80
2022/08/12 02:39:20;;;;;;;;;;;;;;;20.79;47.23;100014.38;4431400;32;33968;-81
2022/08/12 02:41:48;;;;;;;;;;;;;;;20.98;46.50;100017.22;4428588;32;32104;-80
2022/08/12 02:44:16;;;;;;;;;;;;;;;20.74;47.32;100021.94;4441423;32;33968;-81
2022/08/12 02:46:48;;;;;;;;;;;;;;;20.76;47.23;100025.38;4441365;32;34275;-81
2022/08/12 02:49:18;;;;;;;;;;;;;;;20.57;47.92;100020.66;4442068;32;34585;-80
2022/08/12 02:51:45;;;;;;;;;;;;;;;20.53;48.00;100014.69;4441510;32;33052;-80
2022/08/12 02:54:14;;;;;;;;;;;;;;;20.59;47.73;100013.34;4441422;32;32783;-80
2022/08/12 02:56:42;;;;;;;;;;;;;;;20.75;47.20;100016.47;4441721;32;34203;-80
2022/08/12 02:59:18;;;;;;;;;;;;;;;20.58;47.85;100012.47;4441976;32;34386;-80
2022/08/12 03:01:47;;;;;;;;;;;;;;;20.45;48.25;100011.75;4441725;32;33410;-80
2022/08/12 03:04:23;;;;;;;;;;;;;;;20.55;48.16;100009.19;4454888;32;33864;-81
2022/08/12 03:06:57;;;;;;;;;;;;;;;20.46;48.29;100005.41;4428612;32;33694;-80
2022/08/12 03:09:24;;;;;;;;;;;;;;;20.28;48.74;100009.59;4440907;32;34750;-80
2022/08/12 03:12:06;;;;;;;;;;;;;;;20.43;48.28;100000.31;4440915;32;33736;-80
2022/08/12 03:14:36;;;;;;;;;;;;;;;20.31;48.70;100003.97;4447565;32;34225;-80
2022/08/12 03:17:10;;;;;;;;;;;;;;;20.24;48.77;100002.78;4440016;32;33986;-80
2022/08/12 03:19:42;;;;;;;;;;;;;;;20.26;49.14;100006.16;4441821;32;32640;-81
2022/08/12 03:22:30;;;;;;;;;;;;;;;19.84;49.44;100012.12;4443938;32;33132;-80
2022/08/12 03:25:03;;;;;;;;;;;;;;;20.05;49.06;100006.94;4441260;32;33858;-80
2022/08/12 03:27:34;;;;;;;;;;;;;;;20.03;49.36;100008.84;4419604;32;32812;-80
2022/08/12 03:30:03;;;;;;;;;;;;;;;19.98;50.03;100018.25;4428272;32;33517;-81
2022/08/12 03:32:37;;;;;;;;;;;;;;;19.92;50.13;100014.22;4441790;32;34032;-80
2022/08/12 03:35:07;;;;;;;;;;;;;;;19.70;50.97;100015.06;4441960;32;34220;-81
2022/08/12 03:37:59;;;;;;;;;;;;;;;19.94;50.31;100014.97;4443457;32;34756;-81
2022/08/12 04:03:00;;;;;;;;;;;;;;;19.81;50.18;100031.16;4443464;32;33898;-80
2022/08/12 04:05:28;;;;;;;;;;;;;;;19.43;51.49;100024.25;4442343;32;32896;-80
2022/08/12 04:08:16;;;;;;;;;;;;;;;19.67;50.83;100031.38;4430271;32;32574;-81
2022/08/12 04:13:34;;;;;;;;;;;;;;;19.46;51.46;100028.50;4442984;32;34909;-81
2022/08/12 04:16:05;;;;;;;;;;;;;;;19.52;50.99;100028.03;4428576;32;32326;-80
2022/08/12 04:18:34;;;;;;;;;;;;;;;19.51;51.50;100037.03;4441071;32;34280;-80
2022/08/12 04:21:02;;;;;;;;;;;;;;;19.37;51.92;100034.56;4441107;32;33978;-80
2022/08/12 04:23:30;;;;;;;;;;;;;;;19.42;51.72;100038.59;4440936;32;34293;-80
2022/08/12 04:25:59;;;;;;;;;;;;;;;19.61;51.51;100038.06;4440972;32;33645;-80
2022/08/12 04:28:27;;;;;;;;;;;;;;;19.74;51.29;100043.31;4440607;32;34062;-81
2022/08/12 04:30:58;;;;;;;;;;;;;;;19.37;52.64;100039.91;4428126;32;33141;-80
2022/08/12 04:33:26;;;;;;;;;;;;;;;19.44;52.43;100038.47;4430912;32;33918;-81
2022/08/12 04:35:55;;;;;;;;;;;;;;;19.65;51.58;100050.25;4441069;32;33332;-80
2022/08/12 04:38:22;;;;;;;;;;;;;;;19.45;51.42;100050.91;4440131;32;33800;-80
2022/08/12 04:40:52;;;;;;;;;;;;;;;19.77;51.27;100058.31;4428055;32;32549;-80
2022/08/12 04:43:20;;;;;;;;;;;;;;;19.88;51.37;100056.47;4453424;32;32676;-80
2022/08/12 04:46:11;;;;;;;;;;;;;;;20.08;50.87;100057.63;4443582;32;33804;-80
2022/08/12 04:48:40;;;;;;;;;;;;;;;19.95;50.63;100054.19;4440941;32;33258;-81
2022/08/12 04:51:14;;;;;;;;;;;;;;;20.20;51.34;100064.66;4450571;32;33952;-80
2022/08/12 04:53:43;;;;;;;;;;;;;;;20.54;50.59;100062.00;4440525;32;33785;-81
2022/08/12 04:56:12;;;;;;;;;;;;;;;20.70;50.37;100059.78;4427232;32;33163;-80
2022/08/12 04:58:40;;;;;;;;;;;;;;;20.97;49.53;100063.84;4427873;32;34317;-80
2022/08/12 05:01:07;;;;;;;;;;;;;;;20.88;49.82;100062.78;4453274;32;34687;-80
2022/08/12 05:03:36;;;;;;;;;;;;;;;20.97;49.24;100067.37;4440791;32;32415;-80
2022/08/12 05:06:14;;;;;;;;;;;;;;;21.08;48.46;100071.88;4441935;32;32711;-80
2022/08/12 05:08:59;;;;;;;;;;;;;;;21.11;48.34;100066.25;4441842;32;33788;-81
2022/08/12 05:11:38;;;;;;;;;;;;;;;21.36;47.92;100058.84;4431931;32;33606;-81
2022/08/12 05:14:23;;;;;;;;;;;;;;;21.52;46.75;100056.56;4428995;32;34391;-81
2022/08/12 05:16:53;;;;;;;;;;;;;;;21.92;48.15;100058.50;4427920;32;34364;-80
2022/08/12 05:19:20;;;;;;;;;;;;;;;22.08;47.71;100063.41;4440341;32;33129;-80
2022/08/12 05:21:49;;;;;;;;;;;;;;;21.99;46.31;100067.75;4440676;32;34390;-80
2022/08/12 05:24:20;;;;;;;;;;;;;;;22.05;44.94;100060.97;4440878;32;34702;-81
2022/08/12 05:26:48;;;;;;;;;;;;;;;22.12;44.01;100063.00;4439734;32;34448;-80
2022/08/12 05:29:16;;;;;;;;;;;;;;;22.47;43.47;100059.06;4439985;32;33936;-81
2022/08/12 05:32:09;;;;;;;;;;;;;;;22.41;42.90;100062.31;4443003;32;35482;-81
2022/08/12 05:34:41;;;;;;;;;;;;;;;22.56;42.33;100057.41;4453170;32;34060;-80
2022/08/12 05:37:13;;;;;;;;;;;;;;;22.68;42.70;100057.13;4440963;32;33997;-81
2022/08/12 05:39:47;;;;;;;;;;;;;;;22.98;42.45;100058.06;4428081;32;33093;-81
2022/08/12 05:42:17;;;;;;;;;;;;;;;23.44;41.80;100060.03;4439948;32;33728;-81
2022/08/12 05:44:58;;;;;;;;;;;;;;;23.46;42.51;100060.75;4428614;32;33120;-80
2022/08/12 05:47:27;;;;;;;;;;;;;;;23.47;41.50;100061.63;4440332;32;32793;-81
2022/08/12 05:50:17;;;;;;;;;;;;;;;23.83;41.43;100053.75;4426498;32;33350;-81
2022/08/12 05:52:45;;;;;;;;;;;;;;;24.18;40.34;100051.25;4424679;32;33885;-81
2022/08/12 05:55:22;;;;;;;;;;;;;;;24.29;40.31;100061.00;4437457;32;33990;-80
2022/08/12 05:58:00;;;;;;;;;;;;;;;24.41;39.13;100051.75;4425410;32;32775;-81
2022/08/12 06:00:32;;;;;;;;;;;;;;;24.34;38.83;100053.31;4437091;32;33849;-81
2022/08/12 06:03:01;;;;;;;;;;;;;;;24.19;40.82;100060.19;4424619;32;35916;-80
2022/08/12 06:05:33;;;;;;;;;;;;;;;24.30;39.53;100057.28;4436694;32;33375;-81
2022/08/12 06:08:21;;;;;;;;;;;;;;;24.67;38.43;100057.28;4425424;32;32075;-81
2022/08/12 06:10:50;;;;;;;;;;;;;;;24.28;38.49;100060.16;4437010;32;33807;-81
2022/08/12 06:13:20;;;;;;;;;;;;;;;24.27;37.92;100063.00;4424498;32;34021;-80
2022/08/12 06:16:11;;;;;;;;;;;;;;;24.55;38.56;100050.41;4427108;32;34103;-82
2022/08/12 06:18:39;;;;;;;;;;;;;;;24.57;37.35;100052.94;4412090;32;32653;-80
2022/08/12 06:21:15;;;;;;;;;;;;;;;24.66;37.35;100055.59;4437427;32;34136;-81
2022/08/12 06:23:49;;;;;;;;;;;;;;;24.87;37.41;100059.84;4436629;32;33875;-80
2022/08/12 06:26:20;;;;;;;;;;;;;;;25.06;36.44;100054.31;4438190;32;34232;-81
2022/08/12 06:28:50;;;;;;;;;;;;;;;25.18;37.59;100050.41;4436343;32;32958;-81
2022/08/12 06:31:18;;;;;;;;;;;;;;;25.04;37.24;100061.72;4436874;32;33051;-81
2022/08/12 06:33:55;;;;;;;;;;;;;;;24.60;37.04;100058.91;4436824;32;34287;-81
2022/08/12 06:36:46;;;;;;;;;;;;;;;24.67;36.88;100061.81;4413780;32;33497;-81
2022/08/12 06:39:19;;;;;;;;;;;;;;;25.04;35.89;100056.31;4411785;32;32698;-81
2022/08/12 06:45:02;;;;;;;;;;;;;;;24.87;36.25;100052.59;4429779;32;34979;-81
2022/08/12 06:47:35;;;;;;;;;;;;;;;24.87;37.17;100059.84;4423012;32;33093;-81
2022/08/12 06:50:02;;;;;;;;;;;;;;;24.46;37.13;100051.31;4421632;32;32084;-80
2022/08/12 06:52:31;;;;;;;;;;;;;;;24.82;37.09;100057.59;4419555;32;32939;-81
2022/08/12 06:55:01;;;;;;;;;;;;;;;25.00;36.09;100055.78;4414884;32;34031;-81
2022/08/12 06:57:30;;;;;;;;;;;;;;;25.05;36.07;100052.59;4405993;32;34039;-80
2022/08/12 07:00:26;;;;;;;;;;;;;;;24.81;37.15;100055.06;4401320;32;33802;-81
2022/08/12 07:03:00;;;;;;;;;;;;;;;24.96;37.23;100050.81;4403497;32;35682;-81
2022/08/12 07:05:52;;;;;;;;;;;;;;;25.11;36.40;100059.28;4415976;32;34426;-81
2022/08/12 07:08:20;;;;;;;;;;;;;;;25.63;35.90;100054.81;4418733;32;34621;-81
2022/08/12 07:11:00;;;;;;;;;;;;;;;25.56;36.04;100055.62;4423154;32;33655;-80
2022/08/12 07:13:34;;;;;;;;;;;;;;;26.03;35.68;100058.88;4425196;32;34587;-81
2022/08/12 07:16:50;;;;;;;;;;;;;;;25.90;35.04;100053.03;4420934;32;34393;-82
2022/08/12 07:22:13;;;;;;;;;;;;;;;25.48;35.30;100051.84;4421261;32;32258;-81
2022/08/12 07:25:29;;;;;;;;;;;;;;;25.14;36.12;100067.94;4423642;32;34194;-81
2022/08/12 07:27:39;;;;;;;;;;;;;;;25.66;35.53;100050.97;4423873;32;35819;-81
2022/08/12 07:30:08;;;;;;;;;;;;;;;25.94;35.15;100067.94;4421880;32;33893;-81
2022/08/12 07:32:38;;;;;;;;;;;;;;;26.01;35.59;100055.44;4420001;32;34687;-80
2022/08/12 07:35:07;;;;;;;;;;;;;;;26.10;35.42;100065.31;4423877;32;34938;-81
2022/08/12 07:37:39;;;;;;;;;;;;;;;26.06;35.38;100063.94;4421347;32;34388;-80
2022/08/12 07:40:10;;;;;;;;;;;;;;;25.60;35.54;100063.28;4422183;32;34433;-81
2022/08/12 07:42:46;;;;;;;;;;;;;;;25.98;35.29;100061.19;4410012;32;34598;-81
2022/08/12 07:45:18;;;;;;;;;;;;;;;26.17;34.97;100060.13;4423833;32;34200;-81
2022/08/12 07:47:47;;;;;;;;;;;;;;;26.14;35.49;100060.44;4419486;32;34704;-81
2022/08/12 07:50:15;;;;;;;;;;;;;;;25.98;35.50;100055.78;4433644;32;34015;-81
2022/08/12 07:52:50;;;;;;;;;;;;;;;25.80;35.73;100063.94;4423497;32;33117;-80
2022/08/12 07:57:57;;;;;;;;;;;;;;;26.58;35.15;100063.87;4422479;32;34044;-81
2022/08/12 08:00:27;;;;;;;;;;;;;;;26.61;34.12;100062.72;4418357;32;34040;-80
2022/08/12 08:02:57;;;;;;;;;;;;;;;26.69;34.42;100044.63;4414099;32;33897;-81
2022/08/12 08:05:26;;;;;;;;;;;;;;;26.97;34.01;100052.50;4424459;32;35308;-81
2022/08/12 08:08:00;;;;;;;;;;;;;;;27.11;33.60;100048.28;4423032;32;34013;-80
2022/08/12 08:10:29;;;;;;;;;;;;;;;26.63;34.48;100055.25;4424378;32;34168;-81
2022/08/12 08:13:03;;;;;;;;;;;;;;;27.10;35.53;100042.00;4409001;32;34231;-80
2022/08/12 08:15:40;;;;;;;;;;;;;;;26.94;35.17;100044.69;4410439;32;35835;-80
2022/08/12 08:18:30;;;;;;;;;;;;;;;27.17;33.33;100042.22;4415157;32;34283;-81
2022/08/12 08:21:00;;;;;;;;;;;;;;;27.51;32.96;100044.75;4420771;32;34281;-81
2022/08/12 08:26:25;;;;;;;;;;;;;;;27.22;33.89;100043.41;4414076;32;35894;-81
2022/08/12 08:29:02;;;;;;;;;;;;;;;27.23;32.59;100041.53;4426304;32;34367;-80
2022/08/12 08:31:32;;;;;;;;;;;;;;;27.36;33.22;100041.03;4427911;32;34395;-80
2022/08/12 08:34:05;;;;;;;;;;;;;;;27.68;33.13;100041.03;4419208;32;33481;-81
2022/08/12 08:39:34;;;;;;;;;;;;;;;27.87;32.41;100038.97;4418631;32;33999;-81
2022/08/12 08:44:49;;;;;;;;;;;;;;;27.79;33.71;100043.41;4410651;32;33953;-81
2022/08/12 08:47:29;;;;;;;;;;;;;;;27.45;34.88;100030.03;4422737;32;34274;-81
2022/08/12 08:50:01;;;;;;;;;;;;;;;27.91;34.46;100041.16;4426993;32;34239;-81
2022/08/12 08:52:37;;;;;;;;;;;;;;;27.97;32.17;100039.63;4425988;32;34534;-81
2022/08/12 08:55:12;;;;;;;;;;;;;;;28.35;31.67;100046.16;4425990;32;33638;-81
2022/08/12 08:57:42;;;;;;;;;;;;;;;28.23;30.84;100040.22;4425453;32;33858;-81
2022/08/12 09:00:15;;;;;;;;;;;;;;;28.38;31.19;100029.50;4437494;32;33885;-81
2022/08/12 09:02:48;;;;;;;;;;;;;;;28.89;31.00;100024.47;4438070;32;34245;-81
2022/08/12 09:05:35;;;;;;;;;;;;;;;28.62;32.63;100023.09;4436952;32;33762;-81
2022/08/12 09:08:27;;;;;;;;;;;;;;;28.71;30.29;100022.03;4435596;32;34276;-81
2022/08/12 09:13:26;;;;;;;;;;;;;;;28.57;30.74;100020.06;4431001;32;33984;-81
2022/08/12 09:14:06;;;;;;;;;;;;;;;29.29;29.39;100008.91;4438981;32;34479;-81
2022/08/12 09:16:46;;;;;;;;;;;;;;;28.90;29.08;100019.87;4419192;32;33393;-81
2022/08/12 09:19:20;;;;;;;;;;;;;;;28.92;29.66;100018.69;4437969;32;33449;-81
2022/08/12 09:21:59;;;;;;;;;;;;;;;29.01;29.59;100006.75;4426684;32;35104;-81
2022/08/12 09:24:34;;;;;;;;;;;;;;;29.29;29.53;100011.62;4426301;32;34260;-81
2022/08/12 09:27:15;;;;;;;;;;;;;;;29.62;29.40;100003.19;4437669;32;33089;-81
2022/08/12 09:29:48;;;;;;;;;;;;;;;29.77;29.71;100007.66;4426473;32;33883;-81
2022/08/12 09:32:40;;;;;;;;;;;;;;;29.83;28.46;99998.72;4427139;32;34259;-81
2022/08/12 09:35:40;;;;;;;;;;;;;;;29.69;29.33;99996.84;4427797;32;34293;-81
2022/08/12 09:38:16;;;;;;;;;;;;;;;29.36;31.40;100001.72;4414306;32;33321;-81
2022/08/12 09:40:56;;;;;;;;;;;;;;;30.00;29.53;99990.34;4426776;32;34904;-81
2022/08/12 09:46:55;;;;;;;;;;;;;;;30.03;28.29;100000.88;4423862;32;33528;-81
2022/08/12 09:49:33;;;;;;;;;;;;;;;29.55;29.72;99997.66;4426627;32;34327;-81
2022/08/12 09:52:17;;;;;;;;;;;;;;;29.94;27.90;99980.22;4442118;32;33975;-81
2022/08/12 09:54:50;;;;;;;;;;;;;;;29.70;28.41;99979.47;4454018;32;33953;-81
2022/08/12 09:57:26;;;;;;;;;;;;;;;29.56;28.00;99980.28;4428846;32;34823;-81
2022/08/12 10:00:16;;;;;;;;;;;;;;;29.48;32.13;99983.94;4442025;32;33078;-81
2022/08/12 10:03:09;;;;;;;;;;;;;;;29.74;28.40;99979.94;4441225;32;34683;-81
2022/08/12 10:05:58;;;;;;;;;;;;;;;30.00;27.96;99979.47;4442784;32;34040;-81
2022/08/12 10:08:47;;;;;;;;;;;;;;;30.21;30.23;99973.31;4442515;32;33913;-81
2022/08/12 10:14:38;;;;;;;;;;;;;;;30.72;27.19;99965.97;4444448;32;34264;-81
2022/08/12 10:17:21;;;;;;;;;;;;;;;31.07;27.71;99968.81;4440755;32;34400;-81
2022/08/12 10:19:56;;;;;;;;;;;;;;;30.76;27.44;99963.69;4440858;32;34196;-81
2022/08/12 10:22:35;;;;;;;;;;;;;;;30.59;26.82;99963.06;4440110;32;33796;-81
2022/08/12 10:31:34;;;;;;;;;;;;;;;30.90;26.45;99953.75;4444658;32;34698;-81
2022/08/12 10:34:28;;;;;;;;;;;;;;;30.91;25.76;99953.59;4443021;32;34366;-81
2022/08/12 10:37:02;;;;;;;;;;;;;;;30.80;26.90;99946.75;4439220;32;33954;-81
2022/08/12 10:39:51;;;;;;;;;;;;;;;30.82;26.80;99949.28;4453513;32;33945;-81
2022/08/12 10:45:34;;;;;;;;;;;;;;;30.50;27.26;99945.16;4438771;32;33771;-81
2022/08/12 10:48:05;;;;;;;;;;;;;;;30.90;27.23;99940.13;4439996;32;33868;-81
2022/08/12 10:50:54;;;;;;;;;;;;;;;30.64;27.13;99938.81;4436635;32;34031;-81
2022/08/12 10:53:34;;;;;;;;;;;;;;;31.17;27.12;99933.88;4436363;32;35385;-81
2022/08/12 10:56:16;;;;;;;;;;;;;;;31.42;25.45;99936.19;4427691;32;33350;-81
2022/08/12 10:58:47;;;;;;;;;;;;;;;31.58;24.52;99925.81;4440233;32;33908;-81
2022/08/12 11:01:15;;;;;;;;;;;;;;;31.22;26.17;99933.28;4415527;32;33916;-81
2022/08/12 11:04:09;;;;;;;;;;;;;;;30.31;26.87;99922.09;4439199;32;34527;-81
2022/08/12 11:07:02;;;;;;;;;;;;;;;30.82;26.44;99925.59;4427271;32;32964;-81
2022/08/12 11:09:52;;;;;;;;;;;;;;;30.73;26.90;99928.66;4437122;32;34235;-81
2022/08/12 11:12:37;;;;;;;;;;;;;;;29.89;28.22;99939.97;4433885;32;34326;-81
2022/08/12 11:15:33;;;;;;;;;;;;;;;30.12;27.31;99930.84;4428676;32;34943;-81
2022/08/12 11:18:25;;;;;;;;;;;;;;;29.93;27.75;99919.50;4430769;32;33799;-81
2022/08/12 11:21:02;;;;;;;;;;;;;;;30.79;25.83;99914.22;4435221;32;34261;-81
2022/08/12 11:23:34;;;;;;;;;;;;;;;30.54;26.43;99919.19;4425060;32;35054;-81
2022/08/12 11:26:05;;;;;;;;;;;;;;;30.18;26.63;99921.94;4437980;32;33793;-81
2022/08/12 11:31:31;;;;;;;;;;;;;;;30.26;26.84;99911.75;4432333;32;33891;-82
2022/08/12 11:34:20;;;;;;;;;;;;;;;30.06;26.78;99918.84;4436426;32;33940;-81
2022/08/12 11:37:09;;;;;;;;;;;;;;;29.91;26.33;99913.41;4428284;32;34178;-81
2022/08/12 11:39:54;;;;;;;;;;;;;;;29.64;27.04;99920.34;4429798;32;34330;-81
2022/08/12 11:42:34;;;;;;;;;;;;;;;30.17;25.85;99915.63;4430194;32;33926;-81
2022/08/12 11:45:13;;;;;;;;;;;;;;;29.92;25.87;99920.53;4422700;32;35634;-81
2022/08/12 11:47:50;;;;;;;;;;;;;;;30.49;25.98;99921.66;4432697;32;34308;-81
2022/08/12 11:53:15;;;;;;;;;;;;;;;30.37;25.02;99912.28;4427994;32;35791;-81
2022/08/12 11:56:06;;;;;;;;;;;;;;;30.57;25.41;99902.44;4428518;32;34297;-81
2022/08/12 11:58:42;;;;;;;;;;;;;;;30.69;25.48;99902.78;4432474;32;33926;-81
2022/08/12 12:01:32;;;;;;;;;;;;;;;30.95;24.93;99904.94;4431796;32;33434;-81
2022/08/12 12:04:21;;;;;;;;;;;;;;;31.03;24.12;99893.87;4430001;32;34241;-81
2022/08/12 12:06:56;;;;;;;;;;;;;;;31.19;26.06;99901.75;4433321;32;34704;-81
2022/08/12 12:09:40;;;;;;;;;;;;;;;30.79;26.42;99908.78;4439846;32;34517;-81
2022/08/12 12:12:23;;;;;;;;;;;;;;;30.85;25.98;99903.38;4436976;32;33113;-81
2022/08/12 12:14:59;;;;;;;;;;;;;;;30.91;26.33;99900.91;4438371;32;34267;-81
2022/08/12 12:17:35;;;;;;;;;;;;;;;30.92;26.67;99898.00;4435715;32;34252;-88
2022/08/12 12:20:10;;;;;;;;;;;;;;;30.68;26.43;99906.56;4432029;32;34320;-85
2022/08/12 12:22:45;;;;;;;;;;;;;;;30.80;26.56;99896.84;4426896;32;33851;-85
2022/08/12 12:25:14;;;;;;;;;;;;;;;31.21;25.66;99896.97;4434904;32;34133;-86
2022/08/12 12:27:48;;;;;;;;;;;;;;;31.15;26.38;99897.78;4433241;32;34361;-86
2022/08/12 12:30:36;;;;;;;;;;;;;;;31.03;26.01;99894.72;4436306;32;34643;-81
2022/08/12 12:33:12;;;;;;;;;;;;;;;31.09;26.07;99888.47;4433651;32;33324;-81
2022/08/12 12:35:46;;;;;;;;;;;;;;;30.72;26.73;99889.66;4432380;32;34239;-82
2022/08/12 12:38:35;;;;;;;;;;;;;;;30.31;28.03;99894.84;4425549;32;34032;-81
2022/08/12 12:41:14;;;;;;;;;;;;;;;30.27;27.22;99885.38;4429552;32;33871;-81
2022/08/12 12:43:43;;;;;;;;;;;;;;;30.66;29.71;99879.47;4430647;32;33662;-81
2022/08/12 12:46:30;;;;;;;;;;;;;;;31.34;26.08;99880.75;4434500;32;34931;-81
2022/08/12 12:49:03;;;;;;;;;;;;;;;31.57;26.05;99880.47;4433571;32;35051;-82
2022/08/12 12:51:38;;;;;;;;;;;;;;;31.66;25.95;99867.47;4421637;32;35597;-81
2022/08/12 12:54:22;;;;;;;;;;;;;;;31.85;26.27;99861.28;4424098;32;34073;-81
2022/08/12 12:56:55;;;;;;;;;;;;;;;31.76;25.06;99856.16;4425176;32;33353;-82
2022/08/12 12:59:30;;;;;;;;;;;;;;;31.73;25.33;99857.44;4439182;32;34040;-81
2022/08/12 13:02:20;;;;;;;;;;;;;;;31.39;25.15;99858.31;4434255;32;34510;-82
2022/08/12 13:04:59;;;;;;;;;;;;;;;31.42;25.61;99843.41;4435638;32;34159;-81
2022/08/12 13:07:31;;;;;;;;;;;;;;;31.22;24.97;99843.25;4436349;32;33959;-81
2022/08/12 13:10:20;;;;;;;;;;;;;;;31.42;25.07;99848.87;4436738;32;34372;-81
2022/08/12 13:13:08;;;;;;;;;;;;;;;31.45;25.08;99843.84;4426479;32;34314;-81
2022/08/12 13:16:03;;;;;;;;;;;;;;;31.51;23.72;99842.19;4438046;32;33132;-81
2022/08/12 13:18:56;;;;;;;;;;;;;;;31.24;22.74;99836.56;4430461;32;34531;-81
2022/08/12 13:21:29;;;;;;;;;;;;;;;30.95;22.24;99848.50;4434578;32;33547;-81
2022/08/12 13:24:02;;;;;;;;;;;;;;;30.66;21.51;99832.31;4426896;32;34870;-81
2022/08/12 13:26:38;;;;;;;;;;;;;;;30.92;21.65;99843.47;4425548;32;33554;-81
2022/08/12 13:29:11;;;;;;;;;;;;;;;30.75;23.30;99833.87;4429012;32;36131;-81
2022/08/12 13:31:47;;;;;;;;;;;;;;;30.72;24.57;99842.47;4416734;32;34646;-82
2022/08/12 13:34:51;;;;;;;;;;;;;;;31.13;23.76;99831.66;4415608;32;34948;-81
2022/08/12 13:37:35;;;;;;;;;;;;;;;30.91;25.28;99830.00;4435815;32;33125;-82
2022/08/12 13:40:31;;;;;;;;;;;;;;;30.87;24.97;99834.22;4433735;32;35809;-83
2022/08/12 13:43:05;;;;;;;;;;;;;;;31.20;25.92;99835.28;4425751;32;34368;-81
2022/08/12 13:45:39;;;;;;;;;;;;;;;31.39;26.08;99831.03;4418705;32;33942;-82
2022/08/12 13:48:12;;;;;;;;;;;;;;;31.64;24.72;99825.91;4425051;32;33309;-81
2022/08/12 13:50:48;;;;;;;;;;;;;;;31.75;25.26;99825.31;4425332;32;34184;-81
2022/08/12 13:53:17;;;;;;;;;;;;;;;31.50;24.88;99829.59;4436524;32;33750;-81
2022/08/12 13:56:13;;;;;;;;;;;;;;;31.40;25.48;99823.69;4414943;32;34559;-81
2022/08/12 13:58:49;;;;;;;;;;;;;;;31.39;24.71;99819.28;4425448;32;34951;-82
2022/08/12 14:01:20;;;;;;;;;;;;;;;31.56;25.03;99813.25;4437304;32;34895;-82
2022/08/12 14:03:53;;;;;;;;;;;;;;;31.68;24.83;99815.41;4424831;32;34328;-82
2022/08/12 14:06:22;;;;;;;;;;;;;;;31.72;24.80;99814.81;4432876;32;34864;-81
2022/08/12 14:09:01;;;;;;;;;;;;;;;31.87;24.99;99815.53;4437255;32;33075;-81
2022/08/12 14:11:54;;;;;;;;;;;;;;;31.55;26.16;99810.75;4431616;32;33821;-81
2022/08/12 14:17:09;;;;;;;;;;;;;;;31.93;26.31;99797.47;4437236;32;34401;-82
2022/08/12 14:20:12;;;;;;;;;;;;;;;32.26;23.71;99800.28;4437484;32;33547;-81
2022/08/12 14:22:32;;;;;;;;;;;;;;;32.23;24.26;99797.09;4426733;32;33229;-81
2022/08/12 14:25:01;;;;;;;;;;;;;;;31.83;23.64;99807.94;4437166;32;34688;-82
2022/08/12 14:27:32;;;;;;;;;;;;;;;31.78;23.94;99803.06;4434360;32;33497;-81
2022/08/12 14:30:25;;;;;;;;;;;;;;;31.69;24.06;99792.53;4437944;32;33093;-81
2022/08/12 14:33:02;;;;;;;;;;;;;;;31.33;24.88;99785.44;4427041;32;34579;-81
2022/08/12 14:35:33;;;;;;;;;;;;;;;31.47;24.85;99786.34;4426603;32;35534;-81
2022/08/12 14:38:32;;;;;;;;;;;;;;;31.52;24.68;99783.84;4439136;32;34280;-82
2022/08/12 14:41:03;;;;;;;;;;;;;;;31.79;24.53;99779.34;4426323;32;34463;-81
2022/08/12 14:43:37;;;;;;;;;;;;;;;31.91;23.44;99769.53;4428856;32;33740;-81
2022/08/12 14:46:28;;;;;;;;;;;;;;;31.74;23.31;99765.47;4415853;32;34882;-81
2022/08/12 14:49:00;;;;;;;;;;;;;;;31.32;24.48;99773.69;4438923;32;33810;-81
2022/08/12 14:54:29;;;;;;;;;;;;;;;31.00;23.96;99771.56;4438840;32;34281;-82
2022/08/12 14:57:21;;;;;;;;;;;;;;;31.40;23.76;99763.66;4438353;32;34372;-81
2022/08/12 15:02:54;;;;;;;;;;;;;;;31.50;24.10;99758.66;4428999;32;33338;-81
2022/08/12 15:05:36;;;;;;;;;;;;;;;31.34;23.87;99757.13;4438646;32;35475;-82
2022/08/12 15:08:37;;;;;;;;;;;;;;;31.34;24.28;99749.78;4439869;32;34031;-82
2022/08/12 15:11:15;;;;;;;;;;;;;;;31.58;23.49;99733.94;4426820;32;34163;-82
2022/08/12 15:13:55;;;;;;;;;;;;;;;31.63;24.06;99742.34;4427094;32;34278;-81
2022/08/12 15:19:08;;;;;;;;;;;;;;;31.34;24.35;99743.50;4425737;32;33100;-81
2022/08/12 15:21:58;;;;;;;;;;;;;;;31.17;24.32;99745.66;4428175;32;34165;-81
2022/08/12 15:24:48;;;;;;;;;;;;;;;31.49;24.20;99744.16;4428447;32;33495;-82
2022/08/12 15:27:17;;;;;;;;;;;;;;;31.27;24.23;99737.97;4438787;32;34225;-81
2022/08/12 15:29:58;;;;;;;;;;;;;;;30.97;24.37;99742.84;4414440;32;35403;-81
2022/08/12 15:32:32;;;;;;;;;;;;;;;31.16;24.78;99740.41;4438448;32;34272;-81
2022/08/12 15:35:03;;;;;;;;;;;;;;;30.96;24.68;99723.97;4425933;32;33427;-81
2022/08/12 15:37:42;;;;;;;;;;;;;;;31.13;24.46;99719.84;4438515;32;33871;-82
2022/08/12 15:40:25;;;;;;;;;;;;;;;30.76;24.47;99730.09;4425344;32;35022;-81
2022/08/12 15:42:58;;;;;;;;;;;;;;;30.68;24.91;99737.59;4426783;32;33845;-82